Time;durP1;ratioP1;P1;durP2;ratioP2;P2;SDS_P1;SDS_P2;PMS_P1;PMS_P2;Temp;Humidity;BMP_temperature;BMP_pressure;BME280_temperature;BME280_humidity;BME280_pressure;Samples;Min_cycle;Max_cycle;Signal;HPM_P1;HPM_P2
2023/05/29 16:45:35;;;;;;;5.20;2.10;;;;;;;29.32;32.96;100643.46;106291;1253;60761;-89
2023/05/29 16:48:24;;;;;;;4.40;1.90;;;;;;;29.33;32.83;100640.26;106429;1256;64653;-86
2023/05/29 16:51:13;;;;;;;4.90;2.40;;;;;;;29.31;32.87;100641.77;106704;1258;58573;-85
2023/05/29 16:54:02;;;;;;;3.90;2.20;;;;;;;29.12;33.50;100641.20;106131;1253;60458;-89
2023/05/29 16:56:51;;;;;;;3.60;2.90;;;;;;;28.95;34.10;100649.14;106232;1253;63719;-88
2023/05/29 16:59:39;;;;;;;3.40;2.20;;;;;;;28.87;34.24;100647.20;106231;1258;63324;-86
2023/05/29 17:02:28;;;;;;;7.50;2.40;;;;;;;28.76;34.33;100641.95;106193;1260;65094;-85
2023/05/29 17:05:17;;;;;;;4.60;2.20;;;;;;;28.68;34.29;100641.06;106181;1259;60528;-85
2023/05/29 17:08:10;;;;;;;4.60;1.90;;;;;;;28.73;34.21;100637.22;106536;1254;60434;-88
2023/05/29 17:10:59;;;;;;;7.70;2.90;;;;;;;28.61;34.95;100635.91;106226;1256;64961;-85
2023/05/29 17:13:51;;;;;;;6.90;3.50;;;;;;;28.53;36.32;100641.11;106237;1258;69969;-89
2023/05/29 17:16:40;;;;;;;6.80;2.70;;;;;;;28.31;37.40;100647.52;106386;1259;62485;-86
2023/05/29 17:19:28;;;;;;;6.40;3.00;;;;;;;28.10;38.43;100651.21;106320;1256;60542;-85
2023/05/29 17:22:17;;;;;;;5.60;2.40;;;;;;;27.98;39.33;100652.44;106317;1253;60442;-85
2023/05/29 17:25:06;;;;;;;3.00;2.30;;;;;;;27.90;40.23;100650.86;106241;1253;65845;-89
2023/05/29 17:27:56;;;;;;;3.80;2.50;;;;;;;27.77;40.98;100651.42;106500;1255;60471;-88
2023/05/29 17:30:45;;;;;;;5.10;2.40;;;;;;;27.56;41.92;100649.75;106400;1253;67704;-85
2023/05/29 17:33:33;;;;;;;4.80;2.40;;;;;;;27.38;42.89;100650.02;106376;1253;60509;-85
2023/05/29 17:36:22;;;;;;;8.50;3.80;;;;;;;27.10;43.81;100647.70;106335;1258;60359;-89
2023/05/29 17:39:11;;;;;;;103.40;38.40;;;;;;;26.64;45.46;100654.86;106340;1259;72483;-86
2023/05/29 17:42:00;;;;;;;106.60;41.30;;;;;;;26.39;47.37;100653.83;106156;1253;63018;-86
2023/05/29 17:44:49;;;;;;;89.60;35.90;;;;;;;26.21;49.40;100656.02;106258;1254;65773;-85
2023/05/29 17:47:38;;;;;;;62.30;26.50;;;;;;;25.95;51.39;100656.87;106338;1256;60352;-86
2023/05/29 17:50:27;;;;;;;57.20;20.40;;;;;;;25.82;52.89;100661.62;106245;1253;60275;-85
2023/05/29 17:53:16;;;;;;;46.30;19.10;;;;;;;25.58;54.55;100659.42;106348;1253;66102;-85
2023/05/29 17:56:05;;;;;;;91.60;36.00;;;;;;;25.33;56.70;100659.94;106370;1252;68419;-85
2023/05/29 17:58:53;;;;;;;135.50;53.30;;;;;;;25.18;58.59;100662.46;106169;1258;76350;-85
2023/05/29 18:01:42;;;;;;;195.90;75.90;;;;;;;24.99;60.97;100670.13;106276;1253;61766;-85
2023/05/29 18:04:31;;;;;;;82.70;30.80;;;;;;;24.86;62.99;100676.42;106319;1253;60540;-85
2023/05/29 18:07:19;;;;;;;62.30;24.50;;;;;;;24.74;64.69;100674.77;106204;1255;74716;-86
2023/05/29 18:10:08;;;;;;;45.40;18.60;;;;;;;24.55;65.35;100674.88;106222;1260;68425;-85
2023/05/29 18:12:57;;;;;;;12.70;6.50;;;;;;;24.41;64.04;100669.95;106266;1259;75001;-85
2023/05/29 18:15:46;;;;;;;17.10;6.30;;;;;;;24.28;62.37;100668.16;106229;1256;60464;-85
2023/05/29 18:18:36;;;;;;;14.80;6.10;;;;;;;24.11;63.77;100664.53;106121;1255;60388;-85
2023/05/29 18:21:24;;;;;;;7.80;3.20;;;;;;;23.91;64.59;100668.91;106291;1253;73872;-85
2023/05/29 18:24:13;;;;;;;12.40;4.30;;;;;;;23.71;66.13;100669.04;106243;1258;70806;-85
2023/05/29 18:27:03;;;;;;;23.40;9.70;;;;;;;23.55;66.75;100665.10;106294;1259;73104;-85
2023/05/29 18:29:52;;;;;;;50.60;21.50;;;;;;;23.30;68.94;100666.39;106298;1254;60944;-85
2023/05/29 18:32:40;;;;;;;45.30;19.50;;;;;;;23.15;72.15;100668.03;106203;1258;61105;-85
2023/05/29 18:35:29;;;;;;;29.90;13.10;;;;;;;23.02;74.92;100667.28;106329;1253;72712;-85
2023/05/29 18:38:18;;;;;;;21.30;9.10;;;;;;;22.86;77.60;100671.05;106052;1259;71637;-84
2023/05/29 18:41:07;;;;;;;25.40;9.10;;;;;;;22.69;80.30;100674.83;106190;1259;75569;-84
2023/05/29 18:43:56;;;;;;;24.70;9.30;;;;;;;22.64;81.79;100669.76;106243;1259;60494;-85
2023/05/29 18:46:45;;;;;;;24.50;9.20;;;;;;;22.57;83.24;100671.07;106331;1253;60537;-84
2023/05/29 18:49:33;;;;;;;17.50;6.80;;;;;;;22.43;84.67;100672.76;106131;1261;76662;-85
2023/05/29 18:52:22;;;;;;;9.20;4.10;;;;;;;22.45;84.23;100671.05;106185;1259;67834;-84
2023/05/29 18:55:12;;;;;;;10.60;4.50;;;;;;;22.34;84.94;100674.55;106210;1253;74064;-85
2023/05/29 18:58:02;;;;;;;6.40;3.40;;;;;;;22.29;85.55;100672.30;106332;1256;61497;-85
2023/05/29 19:00:50;;;;;;;16.60;5.70;;;;;;;22.22;85.58;100676.54;106239;1258;61130;-85
2023/05/29 19:03:39;;;;;;;9.80;5.00;;;;;;;22.05;85.13;100671.79;106285;1254;76524;-84
2023/05/29 19:06:29;;;;;;;8.20;4.00;;;;;;;21.99;86.36;100666.02;106263;1256;67106;-85
2023/05/29 19:09:18;;;;;;;5.90;3.50;;;;;;;21.86;88.00;100665.17;106270;1253;75169;-84
2023/05/29 19:12:07;;;;;;;6.80;3.70;;;;;;;21.73;89.44;100671.30;106383;1259;60522;-85
2023/05/29 19:14:56;;;;;;;7.30;3.70;;;;;;;21.61;91.23;100672.34;106407;1253;60360;-85
2023/05/29 19:17:45;;;;;;;9.20;3.90;;;;;;;21.52;92.49;100671.00;106498;1255;76107;-85
2023/05/29 19:20:34;;;;;;;7.20;3.40;;;;;;;21.38;93.48;100678.20;106300;1259;70985;-85
2023/05/29 19:23:23;;;;;;;6.60;3.20;;;;;;;21.32;94.72;100679.08;106338;1254;74014;-85
2023/05/29 19:26:11;;;;;;;6.60;3.30;;;;;;;21.30;95.04;100675.52;106277;1253;60594;-84
2023/05/29 19:29:00;;;;;;;7.40;3.10;;;;;;;21.25;94.79;100671.23;106404;1254;60422;-85
2023/05/29 19:31:49;;;;;;;4.10;3.00;;;;;;;21.18;95.99;100670.42;106392;1253;75228;-85
2023/05/29 19:34:39;;;;;;;4.40;2.70;;;;;;;21.10;97.14;100666.28;106279;1259;71634;-87
2023/05/29 19:37:28;;;;;;;4.60;2.90;;;;;;;21.02;98.50;100664.98;106422;1254;74840;-86
2023/05/29 19:40:17;;;;;;;5.70;3.30;;;;;;;20.94;99.83;100661.86;106214;1258;61227;-85
2023/05/29 19:43:06;;;;;;;6.70;2.70;;;;;;;20.88;100.00;100661.56;106373;1255;60537;-85
2023/05/29 19:45:54;;;;;;;4.90;3.30;;;;;;;20.85;100.00;100662.35;106161;1255;75720;-85
2023/05/29 19:48:53;;;;;;;4.00;2.80;;;;;;;20.74;100.00;100659.66;106370;1253;68649;-85
2023/05/29 19:51:42;;;;;;;5.50;3.10;;;;;;;20.64;100.00;100661.36;106170;1260;74697;-85
2023/05/29 19:54:31;;;;;;;33.00;5.30;;;;;;;20.65;100.00;100664.16;106293;1254;60602;-86
2023/05/29 19:57:20;;;;;;;18.70;3.90;;;;;;;20.63;100.00;100665.53;106331;1253;61111;-85
2023/05/29 20:00:10;;;;;;;4.00;2.80;;;;;;;20.60;100.00;100667.35;106517;1259;73666;-85
2023/05/29 20:03:02;;;;;;;6.80;2.80;;;;;;;20.60;100.00;100666.14;106440;1260;71353;-85
2023/05/29 20:05:52;;;;;;;5.00;2.90;;;;;;;20.55;100.00;100667.23;106219;1258;73684;-85
2023/05/29 20:08:40;;;;;;;5.60;3.10;;;;;;;20.47;100.00;100668.73;106371;1254;62754;-85
2023/05/29 20:11:29;;;;;;;5.00;2.90;;;;;;;20.42;100.00;100668.57;106315;1259;60530;-89
2023/05/29 20:14:18;;;;;;;6.20;2.60;;;;;;;20.33;100.00;100670.35;106222;1259;73892;-90
2023/05/29 20:17:07;;;;;;;4.80;3.00;;;;;;;20.26;100.00;100668.20;106345;1257;70480;-89
2023/05/29 20:19:57;;;;;;;4.40;3.00;;;;;;;20.28;100.00;100670.89;106274;1258;73765;-89
2023/05/29 20:22:45;;;;;;;4.20;2.80;;;;;;;20.31;100.00;100671.80;106390;1255;62570;-90
2023/05/29 20:25:34;;;;;;;6.20;2.50;;;;;;;20.32;100.00;100669.52;106152;1254;60284;-89
2023/05/29 20:28:25;;;;;;;4.20;2.80;;;;;;;20.35;100.00;100667.02;106445;1259;76138;-90
2023/05/29 20:31:14;;;;;;;3.70;2.30;;;;;;;20.36;100.00;100665.85;106030;1259;71472;-89
2023/05/29 20:34:03;;;;;;;3.80;2.40;;;;;;;20.33;100.00;100664.67;106365;1259;73817;-90
2023/05/29 20:36:53;;;;;;;7.60;2.80;;;;;;;20.26;100.00;100663.85;106603;1259;60972;-89
2023/05/29 20:39:43;;;;;;;3.10;2.40;;;;;;;20.26;100.00;100664.55;106342;1257;61648;-88
2023/05/29 20:42:32;;;;;;;3.90;2.30;;;;;;;20.19;100.00;100664.30;106239;1257;74046;-90
2023/05/29 20:45:21;;;;;;;5.00;2.40;;;;;;;20.13;100.00;100666.60;106329;1259;70262;-88
2023/05/29 20:48:10;;;;;;;5.90;2.50;;;;;;;20.35;100.00;100671.70;106423;1254;72679;-89
2023/05/29 20:50:59;;;;;;;3.90;2.40;;;;;;;20.28;100.00;100673.76;106432;1257;60535;-89
2023/05/29 20:53:49;;;;;;;4.10;2.70;;;;;;;20.19;100.00;100673.49;106349;1259;61300;-85
2023/05/29 20:56:39;;;;;;;5.60;2.40;;;;;;;20.10;100.00;100671.82;106274;1254;76200;-85
2023/05/29 20:59:29;;;;;;;3.40;2.30;;;;;;;20.01;100.00;100673.94;106381;1254;70868;-85
2023/05/29 21:02:18;;;;;;;8.70;2.80;;;;;;;19.85;100.00;100671.88;106570;1257;72599;-90
2023/05/29 21:05:08;;;;;;;7.50;3.00;;;;;;;19.83;100.00;100668.30;106167;1259;60385;-85
2023/05/29 21:07:56;;;;;;;3.30;2.50;;;;;;;19.78;100.00;100670.17;106323;1256;61971;-85
2023/05/29 21:10:45;;;;;;;5.80;2.50;;;;;;;19.73;100.00;100669.98;106304;1258;74474;-86
2023/05/29 21:13:35;;;;;;;6.20;2.30;;;;;;;19.69;100.00;100673.70;106392;1255;69811;-87
2023/05/29 21:16:24;;;;;;;3.70;2.70;;;;;;;19.65;100.00;100669.48;106428;1254;73854;-85
2023/05/29 21:19:13;;;;;;;4.80;2.70;;;;;;;19.58;100.00;100664.14;106409;1254;61599;-86
2023/05/29 21:22:01;;;;;;;3.20;2.50;;;;;;;19.49;100.00;100673.98;106656;1254;60407;-85
2023/05/29 21:24:50;;;;;;;4.40;2.50;;;;;;;19.37;100.00;100674.91;106643;1258;73812;-86
2023/05/29 21:27:39;;;;;;;3.50;2.40;;;;;;;19.27;100.00;100676.66;106417;1259;69576;-89
2023/05/29 21:30:28;;;;;;;3.60;2.30;;;;;;;19.19;100.00;100673.07;106274;1257;72708;-86
2023/05/29 21:33:17;;;;;;;5.40;2.20;;;;;;;19.11;100.00;100672.45;106348;1255;61365;-86
2023/05/29 21:36:06;;;;;;;4.20;2.30;;;;;;;19.06;100.00;100674.20;106342;1259;60446;-85
2023/05/29 21:38:55;;;;;;;3.70;2.60;;;;;;;18.99;100.00;100673.83;106173;1259;74307;-88
2023/05/29 21:41:45;;;;;;;4.70;2.20;;;;;;;18.90;100.00;100671.93;106349;1255;71056;-85
2023/05/29 21:44:33;;;;;;;3.10;2.10;;;;;;;18.81;100.00;100668.80;106371;1258;71447;-89
2023/05/29 21:47:22;;;;;;;3.70;2.40;;;;;;;18.80;100.00;100673.27;106210;1254;62461;-89
2023/05/29 21:50:11;;;;;;;4.60;2.20;;;;;;;18.80;100.00;100672.77;106252;1254;60432;-86
2023/05/29 21:53:02;;;;;;;6.60;2.70;;;;;;;18.78;100.00;100671.51;106385;1258;73852;-85
2023/05/29 21:55:50;;;;;;;4.60;2.30;;;;;;;18.76;100.00;100670.46;106389;1259;71356;-90
2023/05/29 21:58:39;;;;;;;4.20;2.30;;;;;;;18.71;100.00;100662.76;106312;1254;70281;-85
2023/05/29 22:01:28;;;;;;;4.90;2.60;;;;;;;18.69;100.00;100667.36;106333;1259;61463;-90
2023/05/29 22:04:17;;;;;;;4.80;2.50;;;;;;;18.69;100.00;100663.27;106394;1254;62539;-89
2023/05/29 22:07:05;;;;;;;7.90;2.90;;;;;;;18.76;100.00;100659.45;106458;1254;73909;-85
2023/05/29 22:09:54;;;;;;;3.20;2.60;;;;;;;18.77;100.00;100659.30;106291;1254;69772;-89
2023/05/29 22:12:43;;;;;;;4.20;2.80;;;;;;;18.79;100.00;100653.99;106300;1254;73133;-89
2023/05/29 22:15:33;;;;;;;4.80;2.70;;;;;;;18.83;100.00;100658.27;106240;1257;63921;-90
2023/05/29 22:18:21;;;;;;;3.40;2.10;;;;;;;18.88;100.00;100658.88;106212;1259;60316;-89
2023/05/29 22:21:12;;;;;;;5.20;3.10;;;;;;;18.98;100.00;100652.23;106536;1259;72777;-90
2023/05/29 22:24:01;;;;;;;3.90;2.40;;;;;;;19.00;100.00;100650.36;106300;1259;67451;-88
2023/05/29 22:26:51;;;;;;;2.80;2.30;;;;;;;19.03;100.00;100646.70;106365;1257;75025;-90
2023/05/29 22:29:39;;;;;;;4.00;2.30;;;;;;;19.03;100.00;100645.34;106237;1253;60813;-86
2023/05/29 22:32:28;;;;;;;4.40;2.50;;;;;;;18.98;100.00;100641.74;106225;1254;60332;-85
2023/05/29 22:35:17;;;;;;;4.10;2.60;;;;;;;18.98;100.00;100639.75;106411;1254;74484;-86
2023/05/29 22:38:06;;;;;;;4.40;2.30;;;;;;;18.98;100.00;100637.92;106352;1254;69818;-89
2023/05/29 22:40:56;;;;;;;4.70;2.50;;;;;;;18.97;100.00;100637.52;106305;1259;74594;-84
2023/05/29 22:43:45;;;;;;;4.00;2.60;;;;;;;18.91;100.00;100641.04;106317;1254;60435;-89
2023/05/29 22:46:36;;;;;;;3.80;2.50;;;;;;;18.83;100.00;100642.05;106210;1255;61595;-85
2023/05/29 22:49:25;;;;;;;3.70;2.50;;;;;;;18.77;100.00;100641.52;106403;1253;74782;-85
2023/05/29 22:52:14;;;;;;;2.90;2.40;;;;;;;18.70;100.00;100632.67;106415;1259;71400;-88
2023/05/29 22:55:03;;;;;;;4.70;2.50;;;;;;;18.63;100.00;100632.02;106142;1254;73797;-88
2023/05/29 22:57:51;;;;;;;3.30;2.40;;;;;;;18.56;100.00;100639.59;106135;1260;64023;-89
2023/05/29 23:00:40;;;;;;;2.90;2.10;;;;;;;18.44;100.00;100637.84;106501;1254;62305;-90
2023/05/29 23:03:29;;;;;;;3.10;2.20;;;;;;;18.37;100.00;100643.94;106383;1254;75145;-89
2023/05/29 23:06:19;;;;;;;3.40;2.20;;;;;;;18.27;100.00;100640.76;106384;1260;70798;-91
2023/05/29 23:09:08;;;;;;;7.60;2.50;;;;;;;18.15;100.00;100646.66;106417;1254;73279;-90
2023/05/29 23:11:57;;;;;;;3.60;2.20;;;;;;;18.08;100.00;100647.49;106440;1257;60435;-89
2023/05/29 23:14:46;;;;;;;3.20;1.80;;;;;;;18.05;100.00;100647.70;106531;1256;61169;-85
2023/05/29 23:17:34;;;;;;;5.60;2.40;;;;;;;18.03;100.00;100650.07;106397;1260;74327;-89
2023/05/29 23:20:23;;;;;;;4.20;2.30;;;;;;;18.01;100.00;100644.51;106315;1254;69402;-85
2023/05/29 23:23:12;;;;;;;3.90;2.40;;;;;;;18.00;100.00;100644.53;106449;1254;72915;-91
2023/05/29 23:26:00;;;;;;;4.30;2.20;;;;;;;18.00;100.00;100645.11;106603;1257;61225;-91
2023/05/29 23:29:07;;;;;;;4.30;2.40;;;;;;;17.93;100.00;100646.75;106563;1254;63083;-87
2023/05/29 23:31:56;;;;;;;3.70;2.00;;;;;;;17.79;100.00;100646.66;106438;1258;74787;-90
2023/05/29 23:34:44;;;;;;;2.90;2.40;;;;;;;17.77;100.00;100643.35;106468;1254;70686;-90
2023/05/29 23:37:33;;;;;;;3.90;2.30;;;;;;;17.74;100.00;100645.59;106525;1254;73338;-90
2023/05/29 23:40:22;;;;;;;4.40;2.40;;;;;;;17.62;100.00;100643.02;106502;1253;60533;-91
2023/05/29 23:43:11;;;;;;;4.40;2.40;;;;;;;17.52;100.00;100641.59;106692;1254;60437;-89
2023/05/29 23:45:59;;;;;;;5.40;2.50;;;;;;;17.46;100.00;100641.27;106418;1254;76482;-89
2023/05/29 23:48:48;;;;;;;5.20;2.80;;;;;;;17.38;100.00;100640.11;106628;1254;67103;-85
2023/05/29 23:51:37;;;;;;;4.30;2.00;;;;;;;17.37;100.00;100639.39;106418;1254;73929;-86
2023/05/29 23:54:25;;;;;;;3.90;2.60;;;;;;;17.31;100.00;100634.63;106351;1254;62238;-85
2023/05/29 23:57:14;;;;;;;4.00;2.40;;;;;;;17.30;100.00;100635.56;106239;1259;60335;-86
